createdAt,value
2023-01-21T00:01:18.879Z,47.30
2023-01-21T00:03:47.008Z,46.20
2023-01-21T00:06:15.073Z,45.40
2023-01-21T00:08:43.101Z,43.80
2023-01-21T00:11:14.660Z,45.70
2023-01-21T00:13:45.210Z,42.30
2023-01-21T00:16:14.213Z,45.40
2023-01-21T00:18:42.252Z,44.20
2023-01-21T00:21:10.174Z,46.40
2023-01-21T00:23:39.825Z,46.20
2023-01-21T00:26:11.404Z,44.70
2023-01-21T00:28:42.988Z,45.40
2023-01-21T00:31:12.026Z,40.70
2023-01-21T00:33:40.198Z,44.60
2023-01-21T00:36:11.774Z,42.30
2023-01-21T00:38:40.468Z,40.30
2023-01-21T00:41:11.964Z,41.30
2023-01-21T00:43:44.391Z,43.40
2023-01-21T00:46:13.371Z,40.60
2023-01-21T00:48:41.410Z,42.30
2023-01-21T00:51:11.052Z,42.20
2023-01-21T00:53:44.009Z,38.90
2023-01-21T00:56:13.584Z,41.40
2023-01-21T00:58:42.862Z,40.50
2023-01-21T01:01:18.857Z,38.40
2023-01-21T01:03:48.996Z,37.80
2023-01-21T01:06:24.243Z,38.30
2023-01-21T01:08:53.723Z,38.20
2023-01-21T01:11:21.771Z,36.60
2023-01-21T01:13:49.743Z,37.50
2023-01-21T01:16:17.836Z,37.60
2023-01-21T01:18:46.524Z,38.30
2023-01-21T01:21:17.571Z,39.10
2023-01-21T01:23:46.733Z,38.20
2023-01-21T01:26:17.287Z,38.00
2023-01-21T01:28:45.759Z,36.90
2023-01-21T01:31:17.281Z,38.30
2023-01-21T01:33:45.760Z,36.10
2023-01-21T01:36:20.311Z,36.00
2023-01-21T01:38:48.130Z,38.70
2023-01-21T01:41:20.091Z,35.70
2023-01-21T01:43:51.261Z,35.80
2023-01-21T01:46:20.986Z,35.10
2023-01-21T01:49:02.226Z,34.40
2023-01-21T01:51:42.173Z,33.50
2023-01-21T01:54:14.474Z,32.30
2023-01-21T01:56:47.929Z,32.60
2023-01-21T01:59:17.151Z,31.30
2023-01-21T02:01:45.063Z,31.50
2023-01-21T02:04:20.430Z,32.50
2023-01-21T02:06:51.840Z,29.90
2023-01-21T02:09:19.780Z,30.80
2023-01-21T02:11:47.751Z,29.10
2023-01-21T02:14:18.274Z,27.80
2023-01-21T02:17:21.839Z,25.40
2023-01-21T02:20:31.987Z,28.40
2023-01-21T02:23:24.463Z,29.40
2023-01-21T02:29:54.159Z,25.10
2023-01-21T02:33:36.597Z,23.60
2023-01-21T02:36:31.936Z,21.60
2023-01-21T02:39:19.607Z,22.30
2023-01-21T02:42:07.498Z,22.30
2023-01-21T02:44:45.120Z,25.30
2023-01-21T02:47:46.700Z,23.00
2023-01-21T02:50:22.716Z,24.10
2023-01-21T02:53:01.714Z,24.40
2023-01-21T02:55:36.187Z,21.10
2023-01-21T02:58:10.472Z,22.10
2023-01-21T03:01:19.680Z,24.40
2023-01-21T03:07:09.599Z,20.60
2023-01-21T03:09:37.872Z,22.70
2023-01-21T03:12:56.616Z,23.30
2023-01-21T03:15:59.703Z,22.50
2023-01-21T03:18:45.316Z,22.50
2023-01-21T03:21:23.493Z,23.90
2023-01-21T03:23:53.532Z,24.40
2023-01-21T03:26:32.719Z,25.00
2023-01-21T03:29:10.540Z,23.50
2023-01-21T03:31:42.264Z,23.80
2023-01-21T03:34:14.873Z,25.00
2023-01-21T03:37:22.328Z,22.40
2023-01-21T03:40:05.220Z,24.30
2023-01-21T03:42:34.408Z,27.10
2023-01-21T03:45:02.672Z,27.90
2023-01-21T03:47:37.638Z,25.40
2023-01-21T03:50:18.399Z,26.40
2023-01-21T03:52:46.649Z,25.30
2023-01-21T03:55:16.715Z,24.60
2023-01-21T03:57:44.547Z,25.10
2023-01-21T04:00:12.887Z,25.10
2023-01-21T04:02:40.916Z,24.60
2023-01-21T04:05:09.253Z,22.90
2023-01-21T04:07:37.143Z,23.20
2023-01-21T04:10:06.553Z,25.80
2023-01-21T04:12:34.377Z,25.60
2023-01-21T04:15:05.256Z,28.50
2023-01-21T04:17:33.511Z,28.50
2023-01-21T04:20:01.822Z,25.90
2023-01-21T04:22:29.756Z,22.90
2023-01-21T04:24:57.665Z,24.30
2023-01-21T04:27:25.369Z,23.50
2023-01-21T04:29:53.036Z,22.20
2023-01-21T04:32:20.846Z,22.30
2023-01-21T04:34:48.721Z,25.00
2023-01-21T04:37:16.635Z,26.60
2023-01-21T04:39:44.978Z,24.20
2023-01-21T04:42:13.029Z,22.90
2023-01-21T04:44:40.947Z,23.30
2023-01-21T04:47:08.743Z,21.80
2023-01-21T04:49:36.570Z,22.20
2023-01-21T04:52:04.621Z,21.60
2023-01-21T04:54:32.375Z,21.10
2023-01-21T04:57:00.100Z,21.00
2023-01-21T04:59:27.966Z,21.80
2023-01-21T05:01:56.127Z,21.40
2023-01-21T05:04:23.842Z,23.50
2023-01-21T05:06:51.685Z,21.20
2023-01-21T05:09:19.713Z,21.90
2023-01-21T05:11:47.572Z,20.30
2023-01-21T05:14:27.714Z,22.40
2023-01-21T05:17:13.892Z,21.00
2023-01-21T05:19:41.690Z,22.80
2023-01-21T05:22:09.357Z,22.30
2023-01-21T05:24:37.645Z,26.90
2023-01-21T05:27:07.275Z,27.10
2023-01-21T05:29:35.149Z,27.60
2023-01-21T05:32:03.162Z,26.70
2023-01-21T05:34:30.879Z,29.40
2023-01-21T05:36:58.739Z,24.00
2023-01-21T05:39:26.631Z,24.80
2023-01-21T05:41:54.458Z,21.70
2023-01-21T05:44:22.323Z,20.00
2023-01-21T05:46:50.434Z,19.20
2023-01-21T05:49:19.225Z,17.60
2023-01-21T05:51:47.378Z,17.30
2023-01-21T05:54:15.484Z,16.50
2023-01-21T05:56:43.365Z,18.90
2023-01-21T05:59:11.613Z,17.30
2023-01-21T06:01:39.505Z,17.70
2023-01-21T06:04:07.558Z,15.00
2023-01-21T06:06:35.488Z,15.10
2023-01-21T06:09:04.112Z,14.00
2023-01-21T06:11:32.284Z,14.50
2023-01-21T06:14:00.008Z,13.90
2023-01-21T06:16:27.902Z,14.90
2023-01-21T06:18:55.652Z,14.70
2023-01-21T06:21:23.422Z,14.70
2023-01-21T06:23:51.236Z,15.70
2023-01-21T06:26:19.155Z,15.10
2023-01-21T06:28:47.068Z,13.00
2023-01-21T06:31:15.074Z,12.30
2023-01-21T06:33:43.054Z,11.40
2023-01-21T06:36:10.771Z,11.80
2023-01-21T06:38:38.712Z,13.50
2023-01-21T06:41:06.581Z,11.00
2023-01-21T06:43:34.690Z,10.90
2023-01-21T06:46:02.783Z,10.90
2023-01-21T06:48:30.794Z,12.30
2023-01-21T06:51:02.218Z,9.10
2023-01-21T06:53:30.228Z,10.10
2023-01-21T06:56:00.059Z,10.70
2023-01-21T06:58:28.211Z,9.70
2023-01-21T07:00:57.195Z,8.70
2023-01-21T07:03:25.191Z,9.40
2023-01-21T07:05:53.215Z,9.30
2023-01-21T07:08:21.590Z,9.80
2023-01-21T07:10:49.313Z,8.60
2023-01-21T07:13:17.139Z,9.40
2023-01-21T07:15:44.884Z,8.60
2023-01-21T07:18:12.820Z,9.00
2023-01-21T07:20:41.910Z,8.60
2023-01-21T07:23:09.804Z,7.20
2023-01-21T07:25:37.735Z,7.60
2023-01-21T07:28:06.249Z,7.10
2023-01-21T07:30:34.161Z,7.90
2023-01-21T07:33:07.592Z,7.20
2023-01-21T07:35:35.615Z,7.30
2023-01-21T07:38:03.693Z,7.60
2023-01-21T07:40:32.223Z,7.40
2023-01-21T07:43:00.140Z,7.60
2023-01-21T07:45:28.361Z,5.70
2023-01-21T07:47:56.244Z,7.60
2023-01-21T07:50:24.060Z,5.50
2023-01-21T07:52:55.036Z,7.40
2023-01-21T07:55:22.798Z,6.70
2023-01-21T07:57:51.012Z,6.50
2023-01-21T08:00:19.186Z,7.20
2023-01-21T08:02:51.564Z,7.20
2023-01-21T08:05:19.725Z,7.40
2023-01-21T08:07:50.450Z,7.70
2023-01-21T08:10:21.672Z,8.40
2023-01-21T08:12:49.485Z,8.00
2023-01-21T08:15:17.472Z,8.40
2023-01-21T08:17:46.909Z,9.60
2023-01-21T08:20:14.789Z,10.40
2023-01-21T08:22:46.562Z,11.80
2023-01-21T08:25:14.571Z,15.60
2023-01-21T08:27:42.465Z,12.50
2023-01-21T08:30:10.881Z,11.40
2023-01-21T08:32:39.122Z,8.10
2023-01-21T08:35:08.249Z,8.50
2023-01-21T08:37:36.121Z,12.00
2023-01-21T08:40:04.381Z,12.60
2023-01-21T08:42:32.115Z,14.90
2023-01-21T08:44:59.755Z,13.40
2023-01-21T08:47:27.605Z,12.20
2023-01-21T08:49:55.607Z,11.80
2023-01-21T08:52:23.839Z,10.00
2023-01-21T08:54:51.807Z,15.90
2023-01-21T08:57:21.580Z,8.80
2023-01-21T08:59:49.570Z,7.20
2023-01-21T09:02:17.356Z,10.10
2023-01-21T09:04:46.491Z,9.90
2023-01-21T09:07:14.642Z,7.90
2023-01-21T09:09:42.499Z,13.10
2023-01-21T09:12:10.177Z,8.30
2023-01-21T09:14:38.015Z,7.50
2023-01-21T09:17:05.866Z,8.40
2023-01-21T09:19:34.343Z,9.10
2023-01-21T09:22:02.178Z,8.60
2023-01-21T09:24:31.518Z,9.00
2023-01-21T09:26:59.299Z,11.20
2023-01-21T09:29:27.171Z,7.80
2023-01-21T09:31:54.915Z,8.70
2023-01-21T09:34:22.591Z,9.00
2023-01-21T09:36:51.332Z,7.50
2023-01-21T09:39:20.491Z,8.30
2023-01-21T09:41:55.159Z,8.20
2023-01-21T09:44:44.166Z,9.90
2023-01-21T09:47:23.859Z,8.40
2023-01-21T09:50:16.840Z,9.70
2023-01-21T09:52:48.277Z,10.60
2023-01-21T09:55:23.518Z,11.90
2023-01-21T09:58:20.875Z,8.80
2023-01-21T10:01:29.298Z,8.10
2023-01-21T10:04:35.957Z,8.30
2023-01-21T10:07:17.714Z,6.50
2023-01-21T10:10:33.715Z,7.80
2023-01-21T10:13:37.008Z,7.10
2023-01-21T10:16:38.815Z,8.60
2023-01-21T10:19:14.122Z,9.90
2023-01-21T10:22:02.160Z,8.40
2023-01-21T10:24:40.443Z,8.60
2023-01-21T10:27:16.358Z,8.90
2023-01-21T10:29:47.599Z,8.80
2023-01-21T10:32:26.127Z,10.00
2023-01-21T10:35:00.402Z,10.20
2023-01-21T10:37:43.236Z,12.80
2023-01-21T10:40:40.390Z,12.00
2023-01-21T10:43:54.353Z,10.60
2023-01-21T10:46:53.142Z,10.50
2023-01-21T10:49:57.311Z,8.10
2023-01-21T10:52:36.852Z,7.80
2023-01-21T10:55:16.686Z,7.40
2023-01-21T10:58:27.237Z,7.80
2023-01-21T11:01:00.355Z,7.70
2023-01-21T11:03:40.640Z,8.80
2023-01-21T11:06:17.701Z,9.20
2023-01-21T11:08:55.938Z,9.00
2023-01-21T11:11:29.215Z,8.80
2023-01-21T11:13:57.872Z,8.00
2023-01-21T11:16:53.173Z,9.00
2023-01-21T11:19:29.859Z,7.80
2023-01-21T11:22:30.662Z,6.80
2023-01-21T11:25:00.377Z,7.40
2023-01-21T11:27:28.417Z,7.80
2023-01-21T11:29:59.916Z,10.20
2023-01-21T11:32:31.968Z,9.80
2023-01-21T11:35:22.500Z,7.10
2023-01-21T11:37:50.537Z,9.10
2023-01-21T11:40:25.459Z,8.60
2023-01-21T11:42:56.236Z,10.90
2023-01-21T11:45:36.344Z,9.50
2023-01-21T11:48:20.840Z,8.30
2023-01-21T11:50:48.754Z,8.30
2023-01-21T11:53:19.059Z,9.80
2023-01-21T11:55:53.930Z,10.10
2023-01-21T11:58:30.197Z,9.20
2023-01-21T12:01:04.891Z,8.70
2023-01-21T12:04:01.072Z,7.90
2023-01-21T12:06:31.431Z,7.50
2023-01-21T12:09:07.292Z,7.00
2023-01-21T12:11:35.312Z,7.60
2023-01-21T12:14:54.561Z,8.00
2023-01-21T12:17:47.230Z,7.50
2023-01-21T12:20:57.667Z,9.70
2023-01-21T12:24:02.606Z,9.10
2023-01-21T12:26:40.702Z,11.00
2023-01-21T12:29:37.798Z,10.90
2023-01-21T12:32:23.746Z,9.20
2023-01-21T12:35:27.841Z,9.40
2023-01-21T12:38:31.019Z,11.20
2023-01-21T12:41:23.262Z,11.40
2023-01-21T12:44:00.652Z,9.30
2023-01-21T12:46:40.267Z,9.10
2023-01-21T12:49:11.039Z,12.00
2023-01-21T12:51:46.222Z,9.70
2023-01-21T12:54:49.893Z,10.70
2023-01-21T12:57:34.216Z,9.80
2023-01-21T13:00:22.765Z,9.70
2023-01-21T13:03:21.671Z,7.80
2023-01-21T13:06:11.054Z,8.00
2023-01-21T13:09:04.951Z,8.20
2023-01-21T13:11:49.414Z,8.90
2023-01-21T13:14:27.757Z,9.50
2023-01-21T13:17:03.038Z,9.00
2023-01-21T13:19:30.742Z,7.50
2023-01-21T13:22:08.705Z,7.50
2023-01-21T13:25:15.734Z,8.00
2023-01-21T13:27:59.645Z,9.10
2023-01-21T13:30:34.952Z,8.10
2023-01-21T13:33:33.973Z,8.40
2023-01-21T13:36:46.939Z,9.30
2023-01-21T13:39:28.525Z,8.30
2023-01-21T13:42:02.219Z,11.10
2023-01-21T13:45:09.025Z,10.90
2023-01-21T13:47:56.303Z,10.40
2023-01-21T13:50:30.208Z,9.90
2023-01-21T13:53:03.925Z,11.20
2023-01-21T13:55:53.630Z,11.90
2023-01-21T13:59:14.739Z,15.60
2023-01-21T14:01:51.393Z,10.10
2023-01-21T14:04:54.959Z,12.10
2023-01-21T14:07:33.802Z,10.60
2023-01-21T14:10:09.139Z,11.50
2023-01-21T14:13:04.916Z,13.70
2023-01-21T14:16:02.647Z,14.00
2023-01-21T14:18:36.822Z,10.80
2023-01-21T14:21:39.595Z,9.00
2023-01-21T14:27:37.997Z,9.00
2023-01-21T14:30:25.290Z,7.60
2023-01-21T14:32:59.603Z,10.70
2023-01-21T14:36:04.069Z,10.80
2023-01-21T14:39:18.120Z,8.30
2023-01-21T14:42:04.144Z,8.10
2023-01-21T14:44:53.105Z,9.90
2023-01-21T14:47:24.658Z,9.70
2023-01-21T14:49:54.603Z,13.80
2023-01-21T14:52:45.639Z,14.40
2023-01-21T14:55:32.158Z,12.90
2023-01-21T14:58:01.171Z,14.80
2023-01-21T15:00:33.272Z,14.00
2023-01-21T15:03:18.879Z,13.20
2023-01-21T15:05:52.373Z,14.60
2023-01-21T15:08:46.155Z,20.20
2023-01-21T15:11:30.000Z,24.10
2023-01-21T15:14:10.602Z,24.20
2023-01-21T15:16:44.320Z,28.10
2023-01-21T15:19:15.853Z,28.90
2023-01-21T15:21:59.361Z,24.60
2023-01-21T15:24:39.984Z,20.50
2023-01-21T15:27:25.991Z,20.70
2023-01-21T15:29:53.890Z,23.30
2023-01-21T15:32:27.820Z,27.50
2023-01-21T15:34:59.605Z,23.50
2023-01-21T15:37:30.440Z,30.60
2023-01-21T15:40:11.025Z,26.30
2023-01-21T15:43:14.388Z,25.40
2023-01-21T15:46:34.826Z,23.40
2023-01-21T15:49:38.203Z,23.30
2023-01-21T15:52:36.121Z,22.80
2023-01-21T15:55:50.247Z,15.50
2023-01-21T15:58:28.524Z,18.60
2023-01-21T16:01:08.337Z,15.80
2023-01-21T16:03:45.992Z,15.10
2023-01-21T16:06:36.127Z,14.10
2023-01-21T16:09:31.086Z,15.20
2023-01-21T16:12:20.795Z,16.70
2023-01-21T16:15:05.852Z,16.00
2023-01-21T16:17:43.083Z,11.50
2023-01-21T16:20:12.833Z,14.00
2023-01-21T16:22:45.191Z,11.80
2023-01-21T16:27:51.072Z,11.20
2023-01-21T16:30:29.863Z,12.20
2023-01-21T16:33:16.357Z,11.30
2023-01-21T16:36:00.595Z,11.40
2023-01-21T16:38:32.157Z,12.30
2023-01-21T16:41:06.366Z,13.60
2023-01-21T16:43:56.401Z,12.20
2023-01-21T16:46:38.426Z,12.60
2023-01-21T16:49:16.290Z,13.10
2023-01-21T16:52:01.385Z,13.40
2023-01-21T16:54:33.605Z,16.70
2023-01-21T16:59:57.281Z,17.70
2023-01-21T17:02:32.162Z,15.90
2023-01-21T17:05:04.577Z,17.30
2023-01-21T17:10:41.655Z,17.60
2023-01-21T17:13:15.917Z,16.70
2023-01-21T17:15:57.644Z,16.30
2023-01-21T17:18:36.765Z,15.60
2023-01-21T17:21:28.321Z,17.20
2023-01-21T17:24:03.162Z,16.30
2023-01-21T17:26:39.065Z,15.80
2023-01-21T17:29:33.187Z,13.60
2023-01-21T17:32:05.679Z,16.60
2023-01-21T17:34:37.411Z,15.50
2023-01-21T17:38:03.944Z,17.40
2023-01-21T17:41:00.641Z,19.10
2023-01-21T17:43:28.538Z,16.90
2023-01-21T17:45:57.604Z,17.10
2023-01-21T17:48:38.688Z,15.80
2023-01-21T17:51:12.173Z,15.00
2023-01-21T17:53:48.105Z,15.00
2023-01-21T17:56:53.207Z,14.20
2023-01-21T17:59:37.499Z,15.20
2023-01-21T18:02:15.593Z,14.30
2023-01-21T18:04:43.510Z,14.20
2023-01-21T18:07:31.547Z,15.90
2023-01-21T18:10:02.056Z,16.80
2023-01-21T18:12:30.527Z,17.30
2023-01-21T18:14:58.525Z,17.50
2023-01-21T18:17:26.808Z,22.50
2023-01-21T18:19:57.042Z,22.30
2023-01-21T18:22:32.270Z,21.50
2023-01-21T18:25:02.454Z,20.80
2023-01-21T18:27:32.613Z,18.90
2023-01-21T18:30:01.367Z,18.70
2023-01-21T18:32:31.163Z,21.00
2023-01-21T18:35:00.151Z,20.70
2023-01-21T18:37:28.542Z,21.40
2023-01-21T18:39:57.702Z,19.80
2023-01-21T18:42:26.212Z,23.20
2023-01-21T18:44:53.902Z,21.30
2023-01-21T18:47:22.558Z,21.70
2023-01-21T18:49:54.138Z,22.10
2023-01-21T18:52:36.019Z,21.80
2023-01-21T18:55:09.737Z,24.70
2023-01-21T18:57:50.142Z,22.90
2023-01-21T19:00:49.253Z,18.40
2023-01-21T19:03:42.292Z,18.40
2023-01-21T19:06:30.129Z,20.80
2023-01-21T19:14:14.614Z,18.70
2023-01-21T19:17:32.999Z,20.10
2023-01-21T19:20:08.433Z,19.60
2023-01-21T19:22:44.573Z,22.60
2023-01-21T19:25:15.797Z,22.60
2023-01-21T19:27:55.661Z,21.40
2023-01-21T19:30:39.262Z,18.90
2023-01-21T19:33:11.286Z,17.10
2023-01-21T19:35:49.771Z,19.00
2023-01-21T19:38:23.446Z,19.20
2023-01-21T19:40:52.053Z,18.60
2023-01-21T19:43:21.292Z,18.40
2023-01-21T19:45:51.886Z,16.90
2023-01-21T19:48:21.788Z,19.10
2023-01-21T19:50:59.232Z,20.40
2023-01-21T19:53:27.996Z,19.40
2023-01-21T19:55:56.715Z,19.40
2023-01-21T19:58:32.845Z,20.40
2023-01-21T20:01:06.129Z,18.30
2023-01-21T20:03:38.863Z,18.10
2023-01-21T20:06:20.213Z,19.70
2023-01-21T20:08:58.881Z,18.30
2023-01-21T20:11:36.172Z,19.10
2023-01-21T20:14:07.894Z,19.70
2023-01-21T20:16:49.614Z,18.90
2023-01-21T20:19:23.694Z,22.20
2023-01-21T20:22:02.982Z,19.20
2023-01-21T20:24:38.361Z,19.80
2023-01-21T20:27:14.258Z,21.10
2023-01-21T20:29:55.724Z,21.50
2023-01-21T20:32:37.567Z,21.00
2023-01-21T20:35:12.412Z,18.70
2023-01-21T20:37:56.639Z,17.80
2023-01-21T20:40:39.361Z,17.70
2023-01-21T20:43:20.012Z,18.90
2023-01-21T20:45:53.186Z,17.60
2023-01-21T20:48:37.470Z,18.20
2023-01-21T20:51:13.114Z,20.40
2023-01-21T20:53:48.681Z,18.40
2023-01-21T20:56:32.666Z,18.80
2023-01-21T20:59:11.460Z,18.90
2023-01-21T21:01:46.508Z,18.90
2023-01-21T21:04:16.032Z,21.60
2023-01-21T21:06:58.128Z,25.10
2023-01-21T21:09:28.302Z,21.50
2023-01-21T21:11:59.239Z,21.90
2023-01-21T21:14:27.285Z,23.70
2023-01-21T21:16:56.665Z,21.50
2023-01-21T21:19:25.121Z,24.10
2023-01-21T21:21:57.718Z,25.30
2023-01-21T21:24:29.344Z,24.70
2023-01-21T21:27:04.379Z,27.30
2023-01-21T21:29:35.211Z,26.00
2023-01-21T21:32:17.743Z,24.40
2023-01-21T21:35:01.381Z,25.30
2023-01-21T21:37:57.043Z,28.50
2023-01-21T21:40:48.189Z,30.70
2023-01-21T21:43:38.528Z,29.50
2023-01-21T21:46:31.941Z,28.60
2023-01-21T21:49:02.753Z,29.20
2023-01-21T21:51:42.106Z,26.00
2023-01-21T21:54:11.144Z,28.60
2023-01-21T21:56:44.948Z,27.20
2023-01-21T21:59:23.657Z,26.60
2023-01-21T22:05:21.602Z,27.10
2023-01-21T22:08:03.760Z,27.10
2023-01-21T22:10:35.053Z,28.50
2023-01-21T22:13:07.106Z,29.40
2023-01-21T22:15:57.583Z,26.40
2023-01-21T22:18:28.526Z,25.20
2023-01-21T22:21:03.535Z,28.50
2023-01-21T22:23:42.235Z,29.10
2023-01-21T22:26:21.219Z,29.60
2023-01-21T22:28:53.591Z,28.90
2023-01-21T22:31:26.117Z,31.10
2023-01-21T22:34:02.871Z,30.60
2023-01-21T22:36:33.357Z,30.90
2023-01-21T22:39:02.271Z,33.30
2023-01-21T22:41:31.180Z,36.10
2023-01-21T22:43:59.429Z,33.60
2023-01-21T22:46:33.216Z,36.00
2023-01-21T22:49:01.635Z,32.00
2023-01-21T22:51:29.859Z,32.20
2023-01-21T22:53:59.864Z,33.60
2023-01-21T22:56:49.605Z,33.30
2023-01-21T22:59:31.284Z,32.20
2023-01-21T23:01:59.749Z,31.80
2023-01-21T23:04:30.903Z,32.50
2023-01-21T23:07:02.355Z,30.20
2023-01-21T23:09:35.354Z,32.50
2023-01-21T23:12:05.283Z,32.80
2023-01-21T23:14:33.835Z,29.40
2023-01-21T23:17:04.703Z,30.30
2023-01-21T23:19:33.487Z,28.50
2023-01-21T23:24:47.536Z,28.90
2023-01-21T23:27:21.709Z,29.70
2023-01-21T23:29:56.329Z,29.70
2023-01-21T23:32:30.751Z,30.00
2023-01-21T23:37:31.576Z,26.30
2023-01-21T23:40:05.994Z,28.20
2023-01-21T23:42:50.655Z,30.00
2023-01-21T23:45:23.191Z,29.20
2023-01-21T23:47:59.275Z,33.90
2023-01-21T23:50:37.750Z,32.60
2023-01-21T23:53:21.659Z,37.60
2023-01-21T23:56:11.534Z,39.20
2023-01-21T23:58:40.439Z,45.40
